Time;durP1;ratioP1;P1;durP2;ratioP2;P2;SDS_P1;SDS_P2;PMS_P1;PMS_P2;Temp;Humidity;BMP_temperature;BMP_pressure;BME280_temperature;BME280_humidity;BME280_pressure;Samples;Min_cycle;Max_cycle;Signal;HPM_P1;HPM_P2
2023/03/24 00:02:23;;;;;;;10.57;4.30;;;10.70;99.90;;;;;;6341875;22;20072;-85
2023/03/24 00:05:04;;;;;;;13.27;4.60;;;11.40;99.90;;;;;;6342089;22;20345;-84
2023/03/24 00:07:32;;;;;;;14.95;4.68;;;10.60;99.90;;;;;;6342578;22;20098;-85
2023/03/24 00:10:13;;;;;;;14.13;5.20;;;11.60;99.90;;;;;;6370471;22;20094;-86
2023/03/24 00:12:57;;;;;;;13.35;4.68;;;12.00;99.90;;;;;;6342170;22;20483;-85
2023/03/24 00:15:41;;;;;;;;;;;11.50;99.90;;;;;;6344388;22;20046;-85
2023/03/24 00:18:21;;;;;;;12.38;4.25;;;10.70;99.90;;;;;;6371087;22;19910;-85
2023/03/24 00:20:47;;;;;;;14.93;4.43;;;12.00;99.90;;;;;;6324752;22;20442;-85
2023/03/24 00:23:31;;;;;;;12.00;4.60;;;12.00;99.90;;;;;;6310567;22;20446;-85
2023/03/24 00:26:23;;;;;;;12.02;4.50;;;12.00;99.90;;;;;;6309185;22;20427;-84
2023/03/24 00:29:03;;;;;;;12.37;4.47;;;10.70;99.90;;;;;;6311082;22;20339;-84
2023/03/24 00:31:29;;;;;;;13.53;4.70;;;11.80;99.90;;;;;;6330683;22;20018;-84
2023/03/24 00:34:09;;;;;;;12.37;4.47;;;10.70;99.90;;;;;;6342225;22;20234;-84
2023/03/24 00:36:35;;;;;;;12.45;4.47;;;11.10;99.90;;;;;;6370987;22;20018;-85
2023/03/24 00:39:05;;;;;;;13.53;4.80;;;10.60;99.90;;;;;;6336603;22;20007;-85
2023/03/24 00:41:30;;;;;;;14.35;4.45;;;10.50;99.90;;;;;;6327497;22;20019;-85
2023/03/24 00:44:16;;;;;;;14.05;4.57;;;10.60;99.90;;;;;;6309038;22;20056;-84
2023/03/24 00:49:41;;;;;;;12.60;4.43;;;11.20;99.90;;;;;;6317609;22;20023;-84
2023/03/24 00:52:32;;;;;;;13.85;4.50;;;10.70;99.90;;;;;;6306482;22;20439;-85
2023/03/24 00:55:20;;;;;;;11.68;4.75;;;10.60;99.90;;;;;;6307450;22;20026;-85
2023/03/24 00:58:04;;;;;;;12.40;4.30;;;11.90;99.90;;;;;;6306286;22;20022;-85
2023/03/24 01:00:51;;;;;;;10.95;4.38;;;10.70;99.90;;;;;;6307049;22;20382;-85
2023/03/24 01:03:46;;;;;;;13.65;4.55;;;11.40;99.90;;;;;;6304600;22;20381;-85
2023/03/24 01:06:29;;;;;;;12.75;4.53;;;10.70;99.90;;;;;;6307465;22;20015;-85
2023/03/24 01:09:11;;;;;;;14.07;4.60;;;10.70;99.90;;;;;;6306897;22;20011;-85
2023/03/24 01:11:53;;;;;;;12.57;4.43;;;12.10;99.90;;;;;;6305384;22;20025;-85
2023/03/24 01:14:19;;;;;;;12.18;4.65;;;10.80;99.90;;;;;;6305910;22;20363;-85
2023/03/24 01:17:10;;;;;;;12.73;4.60;;;10.80;99.90;;;;;;6308601;22;20025;-85
2023/03/24 01:20:26;;;;;;;12.68;4.40;;;10.80;99.90;;;;;;6310568;22;20023;-85
2023/03/24 01:23:06;;;;;;;11.90;4.30;;;10.80;99.90;;;;;;6186920;23;20084;-85
2023/03/24 01:25:51;;;;;;;11.93;4.45;;;11.70;99.90;;;;;;6187634;23;20020;-84
2023/03/24 01:28:23;;;;;;;11.35;4.45;;;10.80;99.90;;;;;;6212783;23;20016;-85
2023/03/24 01:31:08;;;;;;;11.23;4.43;;;12.10;99.90;;;;;;6294610;22;20450;-85
2023/03/24 01:33:52;;;;;;;11.55;4.97;;;11.80;99.90;;;;;;6305627;22;20090;-85
2023/03/24 01:36:18;;;;;;;12.00;4.70;;;11.90;99.90;;;;;;6303366;22;20019;-85
2023/03/24 01:38:44;;;;;;;11.93;4.50;;;11.00;99.90;;;;;;6307191;22;20026;-85
2023/03/24 01:41:21;;;;;;;11.77;4.60;;;12.00;99.90;;;;;;6304417;22;20015;-85
2023/03/24 01:44:23;;;;;;;13.63;4.90;;;12.20;99.90;;;;;;6304371;22;20470;-84
2023/03/24 01:47:07;;;;;;;13.38;5.18;;;10.70;99.90;;;;;;6305804;22;20011;-84
2023/03/24 01:49:44;;;;;;;10.90;5.03;;;12.20;99.90;;;;;;6305944;22;20020;-84
2023/03/24 01:52:16;;;;;;;12.30;5.32;;;10.90;99.90;;;;;;6304242;22;20375;-83
2023/03/24 01:54:46;;;;;;;12.70;5.20;;;12.30;99.90;;;;;;6305620;22;20019;-85
2023/03/24 01:57:22;;;;;;;11.18;4.80;;;10.90;99.90;;;;;;6305697;22;20015;-84
2023/03/24 01:59:51;;;;;;;13.15;5.25;;;10.90;99.90;;;;;;6305117;22;20047;-85
2023/03/24 02:02:20;;;;;;;11.35;5.07;;;11.00;99.90;;;;;;6306861;22;20530;-85
2023/03/24 02:04:52;;;;;;;11.27;5.25;;;11.00;99.90;;;;;;6305098;22;20050;-85
2023/03/24 02:07:40;;;;;;;14.00;5.72;;;11.60;99.90;;;;;;6305205;22;20019;-85
2023/03/24 02:10:15;;;;;;;11.95;5.10;;;12.10;99.90;;;;;;6307361;22;20077;-85
2023/03/24 02:12:42;;;;;;;11.73;5.30;;;11.00;99.90;;;;;;6328261;22;20015;-85
2023/03/24 02:15:09;;;;;;;11.10;5.22;;;11.00;99.90;;;;;;6305947;22;20015;-85
2023/03/24 02:17:53;;;;;;;11.27;4.80;;;11.10;99.90;;;;;;6308451;22;20026;-85
2023/03/24 02:20:29;;;;;;;11.60;5.53;;;11.00;99.90;;;;;;6324132;22;20046;-85
2023/03/24 02:23:19;;;;;;;10.88;5.10;;;11.00;99.90;;;;;;6309557;22;20011;-85
2023/03/24 02:26:19;;;;;;;13.38;5.85;;;11.10;99.90;;;;;;6309486;22;20461;-85
2023/03/24 02:29:28;;;;;;;12.40;5.35;;;11.00;99.90;;;;;;6334989;22;19995;-86
2023/03/24 02:32:19;;;;;;;12.85;5.50;;;10.30;99.90;;;;;;6242843;22;20339;-85
2023/03/24 02:35:08;;;;;;;10.07;4.70;;;11.10;99.90;;;;;;6280277;22;20019;-85
2023/03/24 02:38:11;;;;;;;13.38;5.10;;;11.10;99.90;;;;;;6251706;22;20086;-86
2023/03/24 02:40:53;;;;;;;11.05;5.40;;;11.10;99.90;;;;;;6277879;22;20065;-85
2023/03/24 02:43:33;;;;;;;11.25;4.97;;;11.20;99.90;;;;;;6250971;22;20059;-85
2023/03/24 02:46:12;;;;;;;11.82;5.35;;;11.20;99.90;;;;;;6277785;22;20020;-86
2023/03/24 02:49:08;;;;;;;12.48;5.60;;;12.20;99.90;;;;;;6277626;22;20086;-86
2023/03/24 02:51:44;;;;;;;10.05;4.85;;;11.30;99.90;;;;;;6251432;22;20012;-86
2023/03/24 02:54:21;;;;;;;10.82;5.10;;;11.30;99.90;;;;;;6249898;22;20539;-86
2023/03/24 02:56:59;;;;;;;10.48;4.90;;;11.30;99.90;;;;;;6250849;22;20016;-86
2023/03/24 02:59:54;;;;;;;11.68;5.60;;;11.30;99.90;;;;;;6278013;22;20038;-85
2023/03/24 03:02:25;;;;;;;11.40;5.45;;;11.30;99.90;;;;;;6243359;22;20019;-85
2023/03/24 03:04:59;;;;;;;10.90;4.95;;;12.30;99.90;;;;;;6250865;22;20095;-86
2023/03/24 03:07:28;;;;;;;11.25;5.50;;;11.30;99.90;;;;;;6250608;22;20051;-86
2023/03/24 03:10:05;;;;;;;10.77;5.20;;;12.10;99.90;;;;;;6250004;22;20047;-86
2023/03/24 03:12:35;;;;;;;11.40;4.85;;;11.90;99.90;;;;;;6278419;22;20027;-86
2023/03/24 03:15:08;;;;;;;10.57;5.05;;;11.30;99.90;;;;;;6276921;22;20011;-86
2023/03/24 03:17:47;;;;;;;13.82;5.57;;;11.30;99.90;;;;;;6278318;22;20018;-87
2023/03/24 03:20:17;;;;;;;11.07;5.18;;;12.00;99.90;;;;;;6284285;22;20011;-87
2023/03/24 03:22:55;;;;;;;9.75;4.60;;;11.40;99.90;;;;;;6252019;22;20319;-85
2023/03/24 03:25:24;;;;;;;11.88;5.10;;;11.30;99.90;;;;;;6277550;22;20439;-86
2023/03/24 03:27:55;;;;;;;10.98;5.20;;;11.30;99.90;;;;;;6250816;22;20038;-87
2023/03/24 03:30:32;;;;;;;10.18;4.60;;;12.20;99.90;;;;;;6294748;22;20394;-86
2023/03/24 03:33:17;;;;;;;11.98;5.47;;;11.30;99.90;;;;;;6306919;22;20023;-86
2023/03/24 03:35:50;;;;;;;11.30;5.43;;;11.30;99.90;;;;;;6308308;22;20439;-87
2023/03/24 03:38:32;;;;;;;10.88;5.07;;;12.50;99.90;;;;;;6308696;22;20102;-87
2023/03/24 03:41:02;;;;;;;11.82;5.05;;;11.40;99.90;;;;;;6308624;22;20098;-87
2023/03/24 03:43:30;;;;;;;10.50;4.95;;;11.40;99.90;;;;;;6331666;22;20007;-87
2023/03/24 03:45:57;;;;;;;11.40;5.00;;;11.50;99.90;;;;;;6313147;22;20088;-87
2023/03/24 03:48:25;;;;;;;10.30;5.03;;;12.60;99.90;;;;;;6309504;22;20013;-87
2023/03/24 03:50:52;;;;;;;11.02;4.78;;;11.50;99.90;;;;;;6327693;22;20039;-87
2023/03/24 03:56:04;;;;;;;10.38;5.18;;;11.40;99.90;;;;;;6309338;22;20015;-87
2023/03/24 03:58:48;;;;;;;9.20;4.63;;;11.00;99.90;;;;;;6306235;22;20107;-88
2023/03/24 04:01:35;;;;;;;10.20;4.60;;;12.50;99.90;;;;;;6306722;22;20023;-87
2023/03/24 04:04:39;;;;;;;9.90;4.57;;;12.70;99.90;;;;;;6306174;22;20029;-86
2023/03/24 04:07:56;;;;;;;10.00;4.20;;;11.50;99.90;;;;;;6307868;22;20030;-87
2023/03/24 04:11:15;;;;;;;8.85;3.85;;;11.50;99.90;;;;;;6306228;22;20072;-86
2023/03/24 04:13:59;;;;;;;8.40;3.50;;;10.90;99.90;;;;;;6308394;22;20019;-86
2023/03/24 04:24:01;;;;;;;9.77;3.33;;;12.50;99.90;;;;;;6307895;22;20098;-86
2023/03/24 04:26:49;;;;;;;9.55;2.97;;;11.20;99.90;;;;;;6280604;22;20022;-87
2023/03/24 04:29:53;;;;;;;10.45;3.20;;;11.60;99.90;;;;;;6306244;22;20012;-86
2023/03/24 04:32:50;;;;;;;9.73;3.53;;;10.80;99.90;;;;;;6306271;22;20019;-87
2023/03/24 04:35:44;;;;;;;10.73;3.83;;;11.80;99.90;;;;;;6307519;22;20018;-86
2023/03/24 04:38:24;;;;;;;11.23;3.55;;;10.60;99.90;;;;;;6308222;22;20011;-86
2023/03/24 04:41:16;;;;;;;10.07;3.20;;;11.70;99.90;;;;;;6305479;22;20019;-86
2023/03/24 04:44:01;;;;;;;9.63;3.17;;;11.50;99.90;;;;;;6306518;22;20019;-86
2023/03/24 04:46:45;;;;;;;9.43;2.80;;;10.30;99.90;;;;;;6305803;22;20023;-87
2023/03/24 04:49:11;;;;;;;10.00;2.60;;;10.60;99.90;;;;;;6307630;22;20033;-87
2023/03/24 04:51:58;;;;;;;8.15;2.60;;;11.40;99.90;;;;;;6309142;22;20117;-87
2023/03/24 04:54:24;;;;;;;10.25;2.88;;;9.90;99.90;;;;;;6310565;22;20383;-87
2023/03/24 04:56:55;;;;;;;10.60;2.83;;;10.10;99.90;;;;;;6307648;22;20022;-87
2023/03/24 04:59:41;;;;;;;8.88;2.78;;;10.00;99.90;;;;;;6305739;22;20443;-87
2023/03/24 05:02:07;;;;;;;9.75;2.63;;;11.10;99.90;;;;;;6304217;22;20019;-87
2023/03/24 05:04:54;;;;;;;10.57;2.58;;;11.30;99.90;;;;;;6304445;22;20019;-86
2023/03/24 05:07:38;;;;;;;10.40;2.47;;;11.10;99.90;;;;;;6306113;22;20094;-88
2023/03/24 05:10:05;;;;;;;9.45;2.55;;;11.10;99.90;;;;;;6305712;22;20019;-88
2023/03/24 05:12:49;;;;;;;9.85;2.67;;;9.90;99.90;;;;;;6306095;22;20023;-88
2023/03/24 05:15:15;;;;;;;11.48;3.10;;;10.00;99.90;;;;;;6328012;22;20015;-87
2023/03/24 05:17:56;;;;;;;9.50;2.45;;;9.80;99.90;;;;;;6308679;22;20046;-86
2023/03/24 05:20:22;;;;;;;9.90;3.10;;;9.70;99.90;;;;;;6309878;22;20038;-88
2023/03/24 05:22:48;;;;;;;11.13;2.90;;;9.70;99.90;;;;;;6323901;22;20443;-87
2023/03/24 05:25:39;;;;;;;12.52;3.53;;;11.10;99.90;;;;;;6316296;22;20017;-87
2023/03/24 05:28:04;;;;;;;11.80;3.30;;;9.70;99.90;;;;;;6338967;22;20460;-87
2023/03/24 05:33:08;;;;;;;11.48;2.90;;;9.80;99.90;;;;;;6307478;22;20023;-87
2023/03/24 05:35:34;;;;;;;9.73;3.03;;;10.40;99.90;;;;;;6329287;22;20034;-88
2023/03/24 05:38:12;;;;;;;12.38;3.05;;;9.80;99.90;;;;;;6330169;22;20027;-87
2023/03/24 05:40:37;;;;;;;13.20;3.45;;;9.70;99.90;;;;;;6314614;22;20339;-87
2023/03/24 05:43:03;;;;;;;14.40;3.58;;;11.10;99.90;;;;;;6309738;22;20015;-87
2023/03/24 05:45:41;;;;;;;11.60;3.13;;;9.40;99.90;;;;;;6307979;22;20050;-88
2023/03/24 05:48:07;;;;;;;11.02;2.70;;;9.70;99.90;;;;;;6305940;22;20351;-87
2023/03/24 05:50:47;;;;;;;11.75;2.80;;;10.90;99.90;;;;;;6305695;22;20023;-87
2023/03/24 05:53:13;;;;;;;10.30;2.97;;;9.70;99.90;;;;;;6307942;22;20015;-87
2023/03/24 05:55:57;;;;;;;11.73;2.63;;;10.00;99.90;;;;;;6310928;22;20011;-88
2023/03/24 06:01:09;;;;;;;11.63;2.90;;;9.60;99.90;;;;;;6306546;22;20023;-87
2023/03/24 06:03:54;;;;;;;13.60;2.90;;;9.40;99.90;;;;;;6308360;22;20145;-87
2023/03/24 06:06:21;;;;;;;10.65;2.72;;;9.50;99.90;;;;;;6305927;22;20101;-88
2023/03/24 06:08:48;;;;;;;11.47;2.80;;;9.30;99.90;;;;;;6307595;22;20078;-86
2023/03/24 06:11:31;;;;;;;13.68;3.25;;;8.80;99.90;;;;;;6305954;22;20021;-88
2023/03/24 06:14:07;;;;;;;11.63;2.80;;;10.60;99.90;;;;;;6307337;22;20442;-86
2023/03/24 06:16:37;;;;;;;12.85;2.95;;;10.60;99.90;;;;;;6305007;22;20443;-89
2023/03/24 06:19:21;;;;;;;9.33;2.80;;;10.30;99.90;;;;;;6305588;22;20011;-88
2023/03/24 06:21:49;;;;;;;10.70;3.00;;;10.40;99.90;;;;;;6305850;22;20027;-88
2023/03/24 06:24:33;;;;;;;10.93;2.83;;;10.50;99.90;;;;;;6310989;22;20011;-89
2023/03/24 06:27:01;;;;;;;11.30;2.63;;;10.20;99.90;;;;;;6316982;22;20015;-89
2023/03/24 06:32:45;;;;;;;10.77;2.95;;;10.00;99.90;;;;;;6305015;22;20030;-89
2023/03/24 06:35:29;;;;;;;8.23;2.58;;;9.20;99.90;;;;;;6305910;22;20019;-88
2023/03/24 06:37:55;;;;;;;11.48;2.95;;;10.30;99.90;;;;;;6305630;22;20089;-88
2023/03/24 06:40:41;;;;;;;11.95;3.10;;;9.40;99.90;;;;;;6304515;22;20049;-88
2023/03/24 06:43:07;;;;;;;18.10;8.52;;;10.40;99.90;;;;;;6305591;22;20059;-88
2023/03/24 06:45:33;;;;;;;23.52;13.13;;;10.30;99.90;;;;;;6321499;22;20004;-88
2023/03/24 06:48:08;;;;;;;23.60;13.48;;;10.60;99.90;;;;;;6325863;22;20007;-88
2023/03/24 06:50:59;;;;;;;17.35;8.10;;;10.40;99.90;;;;;;6312297;22;20015;-88
2023/03/24 06:53:40;;;;;;;16.53;5.60;;;9.50;99.90;;;;;;6318773;22;20021;-90
2023/03/24 06:56:06;;;;;;;13.87;3.30;;;10.70;99.90;;;;;;6308839;22;20068;-89
2023/03/24 06:58:50;;;;;;;11.93;5.53;;;9.60;99.90;;;;;;6307802;22;20090;-86
2023/03/24 07:01:16;;;;;;;15.75;6.10;;;10.90;99.90;;;;;;6305993;22;20884;-90
2023/03/24 07:03:42;;;;;;;11.07;2.97;;;9.60;99.90;;;;;;6305830;22;20016;-89
2023/03/24 07:06:25;;;;;;;18.70;7.67;;;9.80;99.90;;;;;;6305170;22;20019;-89
2023/03/24 07:08:51;;;;;;;11.65;2.90;;;10.70;99.90;;;;;;6305258;22;20011;-87
2023/03/24 07:11:38;;;;;;;13.47;4.77;;;9.80;99.90;;;;;;6308452;22;20356;-87
2023/03/24 07:14:04;;;;;;;16.02;4.63;;;9.60;99.90;;;;;;6305745;22;20454;-86
2023/03/24 07:16:53;;;;;;;15.85;4.18;;;10.00;99.90;;;;;;6308859;22;20051;-86
2023/03/24 07:19:21;;;;;;;13.75;3.05;;;9.90;99.90;;;;;;6306285;22;20088;-84
2023/03/24 07:22:25;;;;;;;16.60;6.03;;;9.80;99.90;;;;;;6212821;23;20020;-87
2023/03/24 07:29:15;;;;;;;17.70;7.10;;;9.60;99.90;;;;;;6200733;22;20097;-87
2023/03/24 07:32:03;;;;;;;20.17;10.10;;;9.40;99.90;;;;;;6301883;22;20014;-89
2023/03/24 07:34:56;;;;;;;10.60;3.13;;;10.10;99.90;;;;;;6343479;22;20019;-89
2023/03/24 07:37:36;;;;;;;13.32;3.53;;;9.90;99.90;;;;;;6341877;22;20427;-88
2023/03/24 07:40:17;;;;;;;13.82;3.08;;;10.70;99.90;;;;;;6371301;22;20011;-88
2023/03/24 07:45:30;;;;;;;15.00;3.20;;;11.40;99.90;;;;;;6370430;22;20085;-89
2023/03/24 07:48:14;;;;;;;15.27;3.67;;;11.50;99.90;;;;;;6343401;22;20028;-88
2023/03/24 07:50:40;;;;;;;15.27;3.20;;;11.10;99.90;;;;;;6369703;22;20014;-86
2023/03/24 07:53:24;;;;;;;16.38;3.65;;;10.50;99.90;;;;;;6370596;22;20522;-82
2023/03/24 07:55:50;;;;;;;15.77;3.42;;;11.60;99.90;;;;;;6371072;22;20010;-84
2023/03/24 07:58:34;;;;;;;21.15;3.67;;;11.80;99.90;;;;;;6354680;22;20014;-86
2023/03/24 08:01:00;;;;;;;16.08;3.50;;;11.20;99.90;;;;;;6343207;22;20033;-86
2023/03/24 08:03:41;;;;;;;14.30;3.13;;;11.10;99.90;;;;;;6342380;22;20509;-86
2023/03/24 08:06:10;;;;;;;13.00;3.30;;;11.70;99.90;;;;;;6342361;22;20018;-85
2023/03/24 08:08:37;;;;;;;13.00;3.35;;;11.60;99.90;;;;;;6371213;22;20010;-86
2023/03/24 08:11:03;;;;;;;18.05;3.75;;;10.30;99.90;;;;;;6369402;22;20098;-86
2023/03/24 08:13:32;;;;;;;17.33;3.55;;;10.30;99.90;;;;;;6342726;22;20019;-87
2023/03/24 08:15:58;;;;;;;17.88;3.97;;;11.70;99.90;;;;;;6343925;22;20017;-84
2023/03/24 08:24:58;;;;;;;13.55;3.30;;;10.40;99.90;;;;;;6383007;22;20012;-88
2023/03/24 08:27:43;;;;;;;15.57;3.85;;;11.90;99.90;;;;;;6375130;22;20034;-87
2023/03/24 08:30:33;;;;;;;16.52;3.60;;;11.90;99.90;;;;;;6342876;22;20025;-88
2023/03/24 08:33:21;;;;;;;14.75;4.90;;;11.00;99.90;;;;;;6341941;22;20018;-91
2023/03/24 08:35:47;;;;;;;16.90;4.72;;;11.10;99.90;;;;;;6370797;22;20370;-89
2023/03/24 08:38:13;;;;;;;16.73;4.82;;;11.70;99.90;;;;;;6370786;22;20021;-90
2023/03/24 08:41:05;;;;;;;24.30;11.90;;;11.90;99.90;;;;;;6343000;22;20011;-90
2023/03/24 08:43:49;;;;;;;16.27;5.60;;;11.10;99.90;;;;;;6398517;22;20014;-87
2023/03/24 08:46:15;;;;;;;19.00;3.97;;;11.40;99.90;;;;;;6354739;22;20139;-87
2023/03/24 08:49:05;;;;;;;19.77;8.02;;;12.40;99.90;;;;;;6372565;22;20014;-86
2023/03/24 08:51:31;;;;;;;18.52;4.63;;;11.20;99.90;;;;;;6342408;22;20053;-87
2023/03/24 08:54:12;;;;;;;21.45;4.57;;;12.50;99.90;;;;;;6363767;22;20106;-86
2023/03/24 08:56:39;;;;;;;17.30;5.18;;;12.60;99.90;;;;;;6342178;22;20088;-87
2023/03/24 08:59:20;;;;;;;17.25;5.45;;;11.10;99.90;;;;;;6369867;22;20056;-85
2023/03/24 09:01:45;;;;;;;14.85;6.25;;;12.20;99.90;;;;;;6369651;22;20021;-88
2023/03/24 09:04:30;;;;;;;16.30;5.13;;;11.00;99.90;;;;;;6341815;22;20516;-86
2023/03/24 09:07:10;;;;;;;17.15;5.93;;;10.90;99.90;;;;;;6340838;22;20018;-88
2023/03/24 09:09:38;;;;;;;14.85;3.25;;;12.20;99.90;;;;;;6370689;22;20014;-88
2023/03/24 09:12:03;;;;;;;14.18;3.17;;;10.90;99.90;;;;;;6342213;22;20010;-86
2023/03/24 09:14:51;;;;;;;17.80;5.03;;;11.00;99.90;;;;;;6369306;22;20018;-86
2023/03/24 09:17:16;;;;;;;18.08;4.07;;;11.10;99.90;;;;;;6370131;22;20799;-87
2023/03/24 09:19:52;;;;;;;16.38;3.38;;;11.90;99.90;;;;;;6370562;22;20018;-87
2023/03/24 09:22:17;;;;;;;11.57;3.58;;;12.60;99.90;;;;;;6340948;22;20018;-87
2023/03/24 09:24:43;;;;;;;13.32;4.72;;;12.20;99.90;;;;;;6341983;22;20022;-87
2023/03/24 09:27:23;;;;;;;16.77;4.25;;;12.80;99.90;;;;;;6342156;22;20011;-93
2023/03/24 09:29:49;;;;;;;14.15;4.93;;;13.00;99.90;;;;;;6362805;22;20025;-89
2023/03/24 09:32:40;;;;;;;17.15;4.43;;;12.00;99.90;;;;;;6340307;22;20097;-91
2023/03/24 09:35:15;;;;;;;10.25;2.67;;;12.10;99.90;;;;;;6309447;22;20022;-91
2023/03/24 09:38:09;;;;;;;13.48;3.08;;;12.20;99.90;;;;;;6311434;22;20075;-90
2023/03/24 09:40:42;;;;;;;11.15;2.78;;;12.40;99.90;;;;;;6295675;22;20054;-92
2023/03/24 09:43:53;;;;;;;14.10;3.53;;;12.80;99.90;;;;;;6337701;22;20014;-89
2023/03/24 09:46:35;;;;;;;14.27;2.80;;;12.50;99.90;;;;;;6338574;22;20015;-89
2023/03/24 09:49:26;;;;;;;12.77;2.67;;;12.80;99.90;;;;;;6344429;22;20042;-87
2023/03/24 09:52:44;;;;;;;18.00;3.28;;;12.40;99.90;;;;;;6346435;22;20022;-91
2023/03/24 09:58:19;;;;;;;12.43;2.80;;;12.30;99.90;;;;;;6374987;22;20018;-92
2023/03/24 10:01:24;;;;;;;;;;;;;;;;;;;;;
2023/03/24 10:07:28;;;;;;;12.88;2.67;;;12.40;99.90;;;;;;6373224;22;20052;-89
2023/03/24 10:10:53;;;;;;;11.20;2.92;;;12.50;99.90;;;;;;6395606;22;20034;-90
2023/03/24 10:18:08;;;;;;;;;;;;;;;;;;;;;
2023/03/24 10:21:06;;;;;;;12.55;2.22;;;12.40;99.90;;;;;;6309196;22;20011;-87
2023/03/24 10:23:57;;;;;;;10.40;2.60;;;12.80;99.90;;;;;;6368173;22;20011;-86
2023/03/24 10:26:53;;;;;;;8.90;2.70;;;12.50;99.90;;;;;;6370289;22;20014;-84
2023/03/24 10:29:45;;;;;;;10.63;2.63;;;12.30;99.90;;;;;;6367425;22;20040;-87
2023/03/24 10:32:44;;;;;;;11.30;2.33;;;11.90;99.90;;;;;;6366534;22;20094;-86
2023/03/24 10:35:40;;;;;;;13.90;2.63;;;12.60;99.90;;;;;;6214843;23;20013;-86
2023/03/24 10:41:57;;;;;;;11.98;2.50;;;12.30;99.90;;;;;;6216407;23;20396;-88
2023/03/24 10:44:31;;;;;;;12.68;2.88;;;13.00;99.90;;;;;;6219086;23;20016;-87
2023/03/24 10:47:03;;;;;;;11.45;2.30;;;13.10;99.90;;;;;;6217351;23;20044;-86
2023/03/24 10:49:30;;;;;;;11.60;2.33;;;13.20;99.90;;;;;;6362726;22;20380;-84
2023/03/24 10:52:11;;;;;;;10.90;2.30;;;13.30;99.90;;;;;;6368637;22;20050;-87
2023/03/24 10:54:36;;;;;;;11.15;2.55;;;13.40;99.90;;;;;;6371496;22;20495;-86
2023/03/24 10:57:39;;;;;;;14.10;2.70;;;14.70;99.90;;;;;;6370609;22;20010;-86
2023/03/24 11:03:41;;;;;;;12.43;2.65;;;13.50;99.90;;;;;;6369174;22;20053;-86
2023/03/24 11:06:28;;;;;;;9.07;2.30;;;13.60;99.90;;;;;;6369540;22;20442;-88
2023/03/24 11:09:39;;;;;;;12.45;2.92;;;13.90;99.90;;;;;;6371841;22;20018;-86
2023/03/24 11:12:43;;;;;;;12.35;2.63;;;14.00;99.90;;;;;;6218126;23;20016;-85
2023/03/24 11:15:36;;;;;;;11.23;2.17;;;14.10;99.90;;;;;;6217526;23;20094;-86
2023/03/24 11:18:18;;;;;;;12.85;2.40;;;14.20;99.90;;;;;;6218514;23;20099;-84
2023/03/24 11:21:09;;;;;;;11.02;2.78;;;14.20;99.90;;;;;;6248113;23;20092;-87
2023/03/24 11:30:26;;;;;;;10.38;2.42;;;15.00;99.90;;;;;;6289752;22;20084;-86
2023/03/24 11:33:35;;;;;;;10.98;2.53;;;14.00;99.90;;;;;;6251758;22;20024;-88
2023/03/24 11:36:45;;;;;;;10.95;2.63;;;13.70;99.90;;;;;;6249532;22;20110;-88
2023/03/24 11:39:59;;;;;;;10.52;2.50;;;13.40;99.90;;;;;;6307062;22;20391;-87
2023/03/24 11:42:49;;;;;;;12.73;2.58;;;13.70;99.90;;;;;;6278048;22;20363;-89
2023/03/24 11:45:42;;;;;;;12.25;2.30;;;13.90;99.90;;;;;;6313573;22;20019;-87
2023/03/24 11:56:32;;;;;;;9.98;2.42;;;14.20;99.90;;;;;;6275055;22;20018;-89
2023/03/24 12:27:02;;;;;;;;;;;14.20;99.90;;;;;;6276378;22;20053;-88
2023/03/24 12:30:39;;;;;;;24.73;14.57;;;14.60;99.90;;;;;;6282340;22;20376;-85
2023/03/24 12:34:08;;;;;;;27.30;15.68;;;14.80;99.90;;;;;;6250202;22;20020;-86
2023/03/24 12:37:08;;;;;;;13.98;6.15;;;15.20;99.90;;;;;;6273541;22;20019;-86
2023/03/24 12:40:18;;;;;;;13.45;4.70;;;14.70;99.90;;;;;;6275735;22;20497;-84
2023/03/24 12:43:26;;;;;;;13.05;4.30;;;15.00;99.90;;;;;;6248834;22;20459;-85
2023/03/24 12:46:32;;;;;;;13.40;4.45;;;14.70;99.90;;;;;;6275159;22;20015;-86
2023/03/24 12:49:38;;;;;;;14.05;3.10;;;14.70;99.90;;;;;;6248892;22;20011;-85
2023/03/24 12:52:31;;;;;;;11.52;2.90;;;14.90;99.90;;;;;;6279771;22;20016;-85
2023/03/24 12:55:47;;;;;;;10.52;2.17;;;15.10;99.90;;;;;;6275330;22;20100;-85
2023/03/24 12:58:51;;;;;;;13.27;2.80;;;14.70;99.90;;;;;;6251119;22;20339;-86
2023/03/24 13:02:00;;;;;;;11.85;3.30;;;14.90;99.90;;;;;;6248915;22;20094;-86
2023/03/24 13:04:47;;;;;;;14.32;3.67;;;15.10;99.90;;;;;;6248544;22;20015;-86
2023/03/24 13:10:46;;;;;;;14.32;3.15;;;15.20;99.90;;;;;;6366149;22;20024;-86
2023/03/24 13:14:02;;;;;;;;;;;;;;;;;;;;;
2023/03/24 13:17:33;;;;;;;11.40;3.58;;;14.40;99.90;;;;;;6275209;22;20046;-87
2023/03/24 13:27:09;;;;;;;11.70;2.63;;;14.90;99.90;;;;;;6279660;22;20053;-87
2023/03/24 13:30:20;;;;;;;10.98;2.53;;;14.60;99.90;;;;;;6187035;23;20017;-87
2023/03/24 13:33:18;;;;;;;16.92;7.68;;;14.40;99.90;;;;;;6300502;22;20039;-87
2023/03/24 13:36:15;;;;;;;12.77;3.42;;;14.30;99.90;;;;;;6317436;22;20102;-87
2023/03/24 13:39:25;;;;;;;11.40;2.63;;;14.00;99.90;;;;;;6318299;22;20022;-88
2023/03/24 13:42:50;;;;;;;;;;;;;;;;;;;;;
2023/03/24 14:53:41;;;;;;;;;;;;;;;;;;;;;
2023/03/24 15:11:51;;;;;;;16.75;5.43;;;12.30;99.90;;;;;;6309100;22;20030;-86
2023/03/24 15:14:34;;;;;;;14.82;5.32;;;11.50;99.90;;;;;;6304418;22;20019;-86
2023/03/24 15:17:20;;;;;;;12.50;3.67;;;13.30;99.90;;;;;;6306464;22;20020;-86
2023/03/24 15:20:04;;;;;;;16.05;7.95;;;12.50;99.90;;;;;;6305373;22;20022;-85
2023/03/24 15:22:40;;;;;;;13.77;4.40;;;13.80;99.90;;;;;;6308436;22;20022;-86
2023/03/24 15:25:08;;;;;;;12.93;4.07;;;12.80;99.90;;;;;;6308293;22;20015;-86
2023/03/24 15:27:34;;;;;;;13.07;3.47;;;12.80;99.90;;;;;;6305176;22;20016;-86
2023/03/24 15:30:18;;;;;;;10.73;2.80;;;13.10;99.90;;;;;;6308771;22;20340;-84
2023/03/24 15:32:46;;;;;;;10.52;2.97;;;12.80;99.90;;;;;;6319108;22;20012;-85
2023/03/24 15:35:47;;;;;;;10.73;2.83;;;13.70;99.90;;;;;;6307167;22;20039;-87
2023/03/24 15:39:06;;;;;;;10.73;3.00;;;13.60;99.90;;;;;;6311838;22;20390;-84
2023/03/24 15:41:57;;;;;;;11.02;2.75;;;12.30;99.90;;;;;;6305043;22;20034;-85
2023/03/24 15:44:38;;;;;;;11.27;2.88;;;12.30;99.90;;;;;;6305857;22;20019;-85
2023/03/24 15:49:52;;;;;;;11.23;2.40;;;11.90;99.90;;;;;;6338264;22;20019;-84
2023/03/24 15:52:45;;;;;;;9.30;2.63;;;11.90;99.90;;;;;;6342028;22;20297;-85
2023/03/24 15:55:41;;;;;;;10.38;3.95;;;11.60;99.90;;;;;;6311241;22;20011;-85
2023/03/24 15:58:47;;;;;;;12.15;3.58;;;11.00;99.90;;;;;;6310941;22;20068;-86
2023/03/24 16:02:01;;;;;;;11.55;5.90;;;11.30;99.90;;;;;;6298658;22;20015;-86
2023/03/24 16:11:26;;;;;;;14.38;7.78;;;10.90;99.90;;;;;;6311934;22;20029;-86
2023/03/24 16:13:52;;;;;;;13.25;4.95;;;10.70;99.90;;;;;;6311270;22;20040;-85
2023/03/24 16:16:43;;;;;;;13.93;6.47;;;11.30;99.90;;;;;;6309412;22;20097;-84
2023/03/24 16:19:30;;;;;;;11.00;4.13;;;10.30;99.90;;;;;;6310998;22;20054;-85
2023/03/24 16:22:10;;;;;;;9.38;2.83;;;11.60;99.90;;;;;;6338039;22;20015;-85
2023/03/24 16:24:35;;;;;;;11.90;4.13;;;10.20;99.90;;;;;;6337705;22;20067;-85
2023/03/24 16:27:10;;;;;;;13.38;3.40;;;11.60;99.90;;;;;;6310858;22;20384;-85
2023/03/24 16:29:42;;;;;;;12.10;3.75;;;11.50;99.90;;;;;;6338219;22;20069;-85
2023/03/24 16:32:08;;;;;;;12.07;3.60;;;10.30;99.90;;;;;;6338283;22;20326;-85
2023/03/24 16:34:57;;;;;;;11.05;3.25;;;11.60;99.90;;;;;;6339046;22;20011;-85
2023/03/24 16:37:41;;;;;;;11.18;3.35;;;10.30;99.90;;;;;;6310687;22;20015;-85
2023/03/24 16:40:39;;;;;;;9.95;3.92;;;10.80;99.90;;;;;;6338978;22;20011;-86
2023/03/24 16:43:07;;;;;;;12.13;3.92;;;10.20;99.90;;;;;;6338859;22;20011;-84
2023/03/24 16:45:34;;;;;;;12.27;3.45;;;11.80;99.90;;;;;;6310334;22;20015;-83
2023/03/24 16:48:10;;;;;;;10.25;3.63;;;11.40;99.90;;;;;;6338293;22;20086;-83
2023/03/24 16:50:54;;;;;;;9.90;3.10;;;10.50;99.90;;;;;;6310336;22;20022;-83
2023/03/24 16:53:20;;;;;;;10.68;3.15;;;11.60;99.90;;;;;;6310661;22;20418;-83
2023/03/24 16:55:52;;;;;;;10.27;2.90;;;11.80;99.90;;;;;;6311632;22;20138;-84
2023/03/24 16:58:17;;;;;;;12.70;3.20;;;11.60;99.90;;;;;;6310356;22;20021;-84
2023/03/24 17:00:58;;;;;;;14.18;3.75;;;11.00;99.90;;;;;;6310814;22;20011;-83
2023/03/24 17:03:28;;;;;;;10.07;3.00;;;10.90;99.90;;;;;;6321567;22;20030;-83
2023/03/24 17:06:11;;;;;;;9.05;2.80;;;11.80;99.90;;;;;;6284570;22;20011;-84
2023/03/24 17:08:52;;;;;;;11.23;2.70;;;10.60;99.90;;;;;;6310403;22;20049;-83
2023/03/24 17:11:35;;;;;;;9.30;2.47;;;11.90;99.90;;;;;;6310441;22;20072;-83
2023/03/24 17:14:03;;;;;;;8.88;2.50;;;10.70;99.90;;;;;;6278567;22;20519;-83
2023/03/24 17:16:44;;;;;;;18.85;13.55;;;10.70;99.90;;;;;;6279596;22;20011;-83
2023/03/24 17:19:33;;;;;;;9.65;2.70;;;11.80;99.90;;;;;;6278528;22;20030;-83
2023/03/24 17:22:01;;;;;;;9.98;3.05;;;10.10;99.90;;;;;;6279595;22;20003;-83